Copper Center, AK

5:47 PM AKDT on July 28, 2015 (GMT -0800)
Klutina River | | Change Station
CLOSE
Current Station
Personal Weather Station
Location: Copper Center, AK
Elevation: 1100 ft
Nearby Weather Stations

Elev 1100 ft 61.95 °N, 145.32 °W | Updated 20 seconds ago

Clear
Clear
65.0 °F
Feels Like 65.0 °F
N
2.0
Wind Variable Wind from South
Gusts 21.0 mph

Today
High -- | Low -- °F
--% Chance of Precip.
Yesterday
High -- | Low -- °F
Precip. -- in
4:57 AM 10:36 PM
Waxing Gibbous, 93% visible
Pressure 29.77 in
Visibility 10.0 miles
Clouds Clear
Dew Point 51 °F
Humidity 60%
Rainfall 0.00 in
Snow Depth Not available.
UV 4 out of 12
Pollen Not available.
Air Quality Not available.
Flu Activity Not available.
METAR PAGK 290053Z AUTO VRB03KT 10SM CLR 21/07 A2978 RMK AO2 SLP081 T02060067 TSNO

More Conditions Fewer Conditions

Pressure 29.77 in
Visibility 10.0 miles
Clouds Clear
Dew Point 51 °F
Humidity 60%
Rainfall 0.00 in
Snow Depth Not available.
UV 4 out of 12
Pollen Not available.
Air Quality Not available.
Flu Activity Not available.
METAR PAGK 290053Z AUTO VRB03KT 10SM CLR 21/07 A2978 RMK AO2 SLP081 T02060067 TSNO

More Conditions Fewer Conditions

10-Day Weather Forecast

×

Almanac

Astronomy

Jul. 28, 2015 Rise Set
Actual Time
Civil Twilight
Nautical Twilight
Astronomical Twilight
Moon
Length of Visible Light
Length of Day
Tomorrow will be .
, % of the Moon is Illuminated

Today's Extremes

State Highs State Lows

Community

WunderPhotos

Upload Photos

1,842,002 photos uploaded!

WunderBlogs® & News

Nearby

Air Quality

  Air Quality AQ Index Pollutant
Not available.

Snow Depth

Station Depth Elevation

Earthquake Activity

City Distance Mag. Time & Date
Minimum magnitude displayed is 2.5.

Coastal Water Temperatures

Place Temperature

Stations

Nearby Weather Stations

Station Location Temp. Windchill Dew Point Humidity Wind Precip. Elev Updated Type